Time;durP1;ratioP1;P1;durP2;ratioP2;P2;SDS_P1;SDS_P2;PMS_P1;PMS_P2;Temp;Humidity;BMP_temperature;BMP_pressure;BME280_temperature;BME280_humidity;BME280_pressure;Samples;Min_cycle;Max_cycle;Signal;HPM_P1;HPM_P2
2023/01/02 00:00:33;;;;;;;16.25;7.80;;;;;;;;;;4708532;28;10000588;-76
2023/01/02 00:02:59;;;;;;;16.20;6.25;;;;;;;;;;5060426;28;20408;-76
2023/01/02 00:05:26;;;;;;;17.17;6.88;;;;;;;;;;5049709;28;20021;-76
2023/01/02 00:07:52;;;;;;;13.20;6.57;;;;;;;;;;5068410;28;20032;-75
2023/01/02 00:10:18;;;;;;;18.58;6.85;;;;;;;;;;5063278;28;20492;-76
2023/01/02 00:12:44;;;;;;;15.68;6.47;;;;;;;;;;5050098;28;20075;-76
2023/01/02 00:15:10;;;;;;;13.30;5.95;;;;;;;;;;5070667;28;20036;-76
2023/01/02 00:17:36;;;;;;;13.75;5.53;;;;;;;;;;5056357;28;20501;-76
2023/01/02 00:20:02;;;;;;;14.32;5.90;;;;;;;;;;5066962;28;20035;-76
2023/01/02 00:22:28;;;;;;;10.77;5.30;;;;;;;;;;5067740;28;20514;-76
2023/01/02 00:24:54;;;;;;;13.50;5.55;;;;;;;;;;5064246;28;20005;-76
2023/01/02 00:27:20;;;;;;;12.63;5.40;;;;;;;;;;5060224;28;20417;-76
2023/01/02 00:29:46;;;;;;;13.25;5.22;;;;;;;;;;5068273;28;20502;-76
2023/01/02 00:32:12;;;;;;;11.02;5.00;;;;;;;;;;5067802;28;20025;-76
2023/01/02 00:34:38;;;;;;;12.75;4.70;;;;;;;;;;5072375;28;20024;-76
2023/01/02 00:37:04;;;;;;;11.30;4.70;;;;;;;;;;5061641;28;20025;-76
2023/01/02 00:39:30;;;;;;;12.73;4.68;;;;;;;;;;5067725;28;20025;-76
2023/01/02 00:41:56;;;;;;;11.57;4.97;;;;;;;;;;5068143;28;20024;-77
2023/01/02 00:44:22;;;;;;;7.15;3.90;;;;;;;;;;5078662;28;20024;-76
2023/01/02 00:46:48;;;;;;;9.55;4.65;;;;;;;;;;5086076;28;20089;-76
2023/01/02 00:49:14;;;;;;;14.25;5.00;;;;;;;;;;5066682;28;20025;-75
2023/01/02 00:51:39;;;;;;;11.57;4.45;;;;;;;;;;5048517;28;20029;-76
2023/01/02 00:54:05;;;;;;;10.48;4.70;;;;;;;;;;5061588;28;20793;-76
2023/01/02 00:56:31;;;;;;;17.58;5.05;;;;;;;;;;5081993;28;20029;-76
2023/01/02 00:58:57;;;;;;;12.23;4.60;;;;;;;;;;5067350;28;20469;-76
2023/01/02 01:01:23;;;;;;;9.93;4.63;;;;;;;;;;5067642;28;20028;-76
2023/01/02 01:03:49;;;;;;;12.15;4.80;;;;;;;;;;5058221;28;20546;-74
2023/01/02 01:06:15;;;;;;;15.23;4.50;;;;;;;;;;5054513;28;20025;-74
2023/01/02 01:08:41;;;;;;;15.00;4.75;;;;;;;;;;5060538;28;20112;-74
2023/01/02 01:11:09;;;;;;;14.75;4.50;;;;;;;;;;5067417;28;20032;-75
2023/01/02 01:13:35;;;;;;;13.15;4.32;;;;;;;;;;5056565;28;20770;-75
2023/01/02 01:16:07;;;;;;;14.55;4.25;;;;;;;;;;5061725;28;20043;-74
2023/01/02 01:18:33;;;;;;;11.85;4.22;;;;;;;;;;5054437;28;20688;-74
2023/01/02 01:21:05;;;;;;;13.40;4.38;;;;;;;;;;5067350;28;20040;-73
2023/01/02 01:23:31;;;;;;;10.23;3.75;;;;;;;;;;5063959;28;20033;-73
2023/01/02 01:25:56;;;;;;;13.90;4.55;;;;;;;;;;5058290;28;20032;-74
2023/01/02 01:28:22;;;;;;;11.07;4.47;;;;;;;;;;5064190;28;20057;-74
2023/01/02 01:30:48;;;;;;;15.90;4.55;;;;;;;;;;5060247;28;20012;-74
2023/01/02 01:33:15;;;;;;;8.52;4.07;;;;;;;;;;5066745;28;20050;-74
2023/01/02 01:35:41;;;;;;;9.63;4.30;;;;;;;;;;5067313;28;20021;-74
2023/01/02 01:38:07;;;;;;;13.68;3.92;;;;;;;;;;5065864;28;20029;-74
2023/01/02 01:40:37;;;;;;;13.18;4.13;;;;;;;;;;5065429;28;20385;-74
2023/01/02 01:43:03;;;;;;;15.30;4.15;;;;;;;;;;5068315;28;20112;-74
2023/01/02 01:45:29;;;;;;;12.05;3.70;;;;;;;;;;5079980;28;20052;-73
2023/01/02 01:47:56;;;;;;;12.07;4.45;;;;;;;;;;5074220;28;20040;-74
2023/01/02 01:50:28;;;;;;;12.77;3.50;;;;;;;;;;5065809;28;20438;-74
2023/01/02 01:52:58;;;;;;;18.07;3.77;;;;;;;;;;5064279;28;20060;-74
2023/01/02 01:55:26;;;;;;;10.05;3.75;;;;;;;;;;5064502;28;20365;-74
2023/01/02 01:58:03;;;;;;;12.10;3.60;;;;;;;;;;5081089;28;20020;-74
2023/01/02 02:00:29;;;;;;;8.68;4.07;;;;;;;;;;5053784;28;20143;-74
2023/01/02 02:02:57;;;;;;;8.85;4.22;;;;;;;;;;5056963;28;20484;-74
2023/01/02 02:05:25;;;;;;;13.77;3.70;;;;;;;;;;5064063;28;20032;-74
2023/01/02 02:08:03;;;;;;;12.38;4.40;;;;;;;;;;5058184;28;20036;-74
2023/01/02 02:10:29;;;;;;;10.85;4.35;;;;;;;;;;5058637;28;20032;-74
2023/01/02 02:12:55;;;;;;;10.40;3.92;;;;;;;;;;5055424;28;20384;-74
2023/01/02 02:15:28;;;;;;;13.27;4.00;;;;;;;;;;5056602;28;20025;-74
2023/01/02 02:17:54;;;;;;;11.63;4.00;;;;;;;;;;5068854;28;20099;-74
2023/01/02 02:20:30;;;;;;;10.30;3.63;;;;;;;;;;5061908;28;20587;-74
2023/01/02 02:23:05;;;;;;;15.27;3.67;;;;;;;;;;5057882;28;20036;-74
2023/01/02 02:25:50;;;;;;;12.90;3.90;;;;;;;;;;5061080;28;20461;-74
2023/01/02 02:28:22;;;;;;;10.85;3.92;;;;;;;;;;5060163;28;20040;-74
2023/01/02 02:30:51;;;;;;;16.23;4.28;;;;;;;;;;5058611;28;20028;-73
2023/01/02 02:33:26;;;;;;;12.60;3.40;;;;;;;;;;5060559;28;20108;-74
2023/01/02 02:36:03;;;;;;;11.90;3.90;;;;;;;;;;5064759;28;20079;-74
2023/01/02 02:38:46;;;;;;;9.32;3.85;;;;;;;;;;5063952;28;20455;-73
2023/01/02 02:41:15;;;;;;;10.05;3.38;;;;;;;;;;5066845;28;20051;-74
2023/01/02 02:43:59;;;;;;;9.77;3.70;;;;;;;;;;5059804;28;20079;-74
2023/01/02 02:46:43;;;;;;;14.57;5.30;;;;;;;;;;5048022;28;20052;-74
2023/01/02 02:49:27;;;;;;;12.38;5.40;;;;;;;;;;5056545;28;20041;-74
2023/01/02 02:52:02;;;;;;;11.10;4.13;;;;;;;;;;5055129;28;20445;-74
2023/01/02 02:54:47;;;;;;;15.02;3.97;;;;;;;;;;5064304;28;20249;-74
2023/01/02 02:57:13;;;;;;;10.88;3.40;;;;;;;;;;5054070;28;20024;-74
2023/01/02 02:59:41;;;;;;;16.42;3.75;;;;;;;;;;5065798;28;20341;-74
2023/01/02 03:02:07;;;;;;;13.18;3.33;;;;;;;;;;5060312;28;20089;-74
2023/01/02 03:04:33;;;;;;;14.25;4.00;;;;;;;;;;5064772;28;20025;-74
2023/01/02 03:07:05;;;;;;;9.73;3.40;;;;;;;;;;5063420;28;20115;-74
2023/01/02 03:09:56;;;;;;;12.10;3.22;;;;;;;;;;5055595;28;20031;-74
2023/01/02 03:12:22;;;;;;;10.18;3.30;;;;;;;;;;5053468;28;20028;-74
2023/01/02 03:14:56;;;;;;;7.57;2.97;;;;;;;;;;5062699;28;20021;-75
2023/01/02 03:17:34;;;;;;;13.13;3.38;;;;;;;;;;5062036;28;20023;-74
2023/01/02 03:20:05;;;;;;;9.15;3.15;;;;;;;;;;5062635;28;20065;-74
2023/01/02 03:22:32;;;;;;;13.18;3.40;;;;;;;;;;5060538;28;20111;-73
2023/01/02 03:24:58;;;;;;;12.80;3.65;;;;;;;;;;5067304;28;20028;-74
2023/01/02 03:27:27;;;;;;;13.95;2.95;;;;;;;;;;5064942;28;20028;-74
2023/01/02 03:29:58;;;;;;;12.27;3.35;;;;;;;;;;5065535;28;20036;-75
2023/01/02 03:32:27;;;;;;;11.02;3.53;;;;;;;;;;5059607;28;20132;-74
2023/01/02 03:34:53;;;;;;;9.65;3.15;;;;;;;;;;5061928;28;20684;-74
2023/01/02 03:37:25;;;;;;;10.57;3.30;;;;;;;;;;5061571;28;20025;-75
2023/01/02 03:39:53;;;;;;;9.57;3.58;;;;;;;;;;5065271;28;20091;-74
2023/01/02 03:42:23;;;;;;;16.85;3.58;;;;;;;;;;5064009;28;20109;-74
2023/01/02 03:44:57;;;;;;;15.43;4.28;;;;;;;;;;5063871;28;20094;-74
2023/01/02 03:47:27;;;;;;;16.90;3.92;;;;;;;;;;5064322;28;20036;-74
2023/01/02 03:49:57;;;;;;;9.52;3.25;;;;;;;;;;5058005;28;20032;-73
2023/01/02 03:52:23;;;;;;;6.82;3.15;;;;;;;;;;5065211;28;20503;-74
2023/01/02 03:54:49;;;;;;;12.23;3.50;;;;;;;;;;5064227;28;20037;-74
2023/01/02 03:57:41;;;;;;;11.13;3.50;;;;;;;;;;5063878;28;20033;-74
2023/01/02 04:00:09;;;;;;;7.22;3.50;;;;;;;;;;5031248;28;20037;-74
2023/01/02 04:02:37;;;;;;;13.77;3.60;;;;;;;;;;5062565;28;20387;-73
2023/01/02 04:05:03;;;;;;;9.07;3.67;;;;;;;;;;5058414;28;20032;-74
2023/01/02 04:07:44;;;;;;;17.13;4.38;;;;;;;;;;5065047;28;20568;-74
2023/01/02 04:10:12;;;;;;;12.25;4.07;;;;;;;;;;5062268;28;20047;-74
2023/01/02 04:12:40;;;;;;;9.65;3.45;;;;;;;;;;5064423;28;20056;-74
2023/01/02 04:15:07;;;;;;;15.75;3.63;;;;;;;;;;5067039;28;20040;-74
2023/01/02 04:17:35;;;;;;;13.13;3.70;;;;;;;;;;5058958;28;20373;-74
2023/01/02 04:20:04;;;;;;;10.85;3.70;;;;;;;;;;5065770;28;20032;-74
2023/01/02 04:22:33;;;;;;;12.25;3.60;;;;;;;;;;5057978;28;20028;-74
2023/01/02 04:25:19;;;;;;;13.25;3.92;;;;;;;;;;5059547;28;20036;-74
2023/01/02 04:28:00;;;;;;;10.40;3.00;;;;;;;;;;5058841;28;20035;-74
2023/01/02 04:30:28;;;;;;;14.18;3.60;;;;;;;;;;5060147;28;20111;-74
2023/01/02 04:32:54;;;;;;;8.27;2.83;;;;;;;;;;5068461;28;20051;-74
2023/01/02 04:35:22;;;;;;;13.25;3.03;;;;;;;;;;5053707;28;20017;-74
2023/01/02 04:37:48;;;;;;;16.13;4.20;;;;;;;;;;5053005;28;20070;-74
2023/01/02 04:40:25;;;;;;;12.95;3.05;;;;;;;;;;5049743;28;20021;-74
2023/01/02 04:42:51;;;;;;;14.40;3.30;;;;;;;;;;5072762;28;20047;-75
2023/01/02 04:45:17;;;;;;;14.02;3.47;;;;;;;;;;5082996;28;20020;-75
2023/01/02 04:47:43;;;;;;;10.43;3.33;;;;;;;;;;5066579;28;20036;-74
2023/01/02 04:50:10;;;;;;;15.40;3.55;;;;;;;;;;5066817;28;20032;-74
2023/01/02 04:52:36;;;;;;;13.80;3.33;;;;;;;;;;5057953;28;20033;-74
2023/01/02 04:55:02;;;;;;;9.73;3.13;;;;;;;;;;5069843;28;20051;-74
2023/01/02 04:57:28;;;;;;;13.65;3.30;;;;;;;;;;5065173;28;20021;-74
2023/01/02 04:59:54;;;;;;;14.95;3.38;;;;;;;;;;5066724;28;20178;-74
2023/01/02 05:02:20;;;;;;;10.57;3.70;;;;;;;;;;5066247;28;20032;-74
2023/01/02 05:04:46;;;;;;;11.15;2.92;;;;;;;;;;5055456;28;20367;-74
2023/01/02 05:07:12;;;;;;;11.35;3.20;;;;;;;;;;5059155;28;20063;-74
2023/01/02 05:09:38;;;;;;;14.20;3.63;;;;;;;;;;5060081;28;20025;-74
2023/01/02 05:12:04;;;;;;;14.73;3.60;;;;;;;;;;5057748;28;20366;-74
2023/01/02 05:14:30;;;;;;;13.02;3.55;;;;;;;;;;5064737;28;20036;-74
2023/01/02 05:16:56;;;;;;;9.48;3.70;;;;;;;;;;5060792;28;20570;-74
2023/01/02 05:19:22;;;;;;;8.52;3.20;;;;;;;;;;5060417;28;20071;-74
2023/01/02 05:24:33;;;;;;;9.93;3.80;;;;;;;;;;5059142;28;20066;-74
2023/01/02 05:26:59;;;;;;;9.82;3.95;;;;;;;;;;5062828;28;20488;-74
2023/01/02 05:29:25;;;;;;;14.25;4.35;;;;;;;;;;5062720;28;20029;-74
2023/01/02 05:31:51;;;;;;;11.15;4.13;;;;;;;;;;5057758;28;20035;-74
2023/01/02 05:34:17;;;;;;;13.77;4.28;;;;;;;;;;5067322;28;20055;-75
2023/01/02 05:36:43;;;;;;;13.68;4.25;;;;;;;;;;5056755;28;20025;-74
2023/01/02 05:39:11;;;;;;;12.02;4.28;;;;;;;;;;5062715;28;20033;-74
2023/01/02 05:41:38;;;;;;;17.15;4.38;;;;;;;;;;5060747;28;20394;-75
2023/01/02 05:44:04;;;;;;;13.43;4.00;;;;;;;;;;5062632;28;20032;-74
2023/01/02 05:46:30;;;;;;;14.07;3.67;;;;;;;;;;5061995;28;20044;-74
2023/01/02 05:48:56;;;;;;;13.80;3.47;;;;;;;;;;5054827;28;20533;-74
2023/01/02 05:51:22;;;;;;;10.82;3.58;;;;;;;;;;5062487;28;20028;-74
2023/01/02 05:53:49;;;;;;;10.70;3.35;;;;;;;;;;5063221;28;20193;-74
2023/01/02 05:56:16;;;;;;;19.80;3.90;;;;;;;;;;5058921;28;20078;-74
2023/01/02 05:58:43;;;;;;;14.55;3.58;;;;;;;;;;5056805;28;20035;-74
2023/01/02 06:01:10;;;;;;;13.77;3.75;;;;;;;;;;5060210;28;20036;-74
2023/01/02 06:03:37;;;;;;;13.57;3.75;;;;;;;;;;5057566;28;20108;-75
2023/01/02 06:06:04;;;;;;;12.90;3.60;;;;;;;;;;5060098;28;20058;-74
2023/01/02 06:08:30;;;;;;;16.63;4.15;;;;;;;;;;5062454;28;20020;-75
2023/01/02 06:10:56;;;;;;;16.05;4.53;;;;;;;;;;5062982;28;20086;-74
2023/01/02 06:13:22;;;;;;;16.90;3.85;;;;;;;;;;5061268;28;20031;-74
2023/01/02 06:15:48;;;;;;;10.90;3.65;;;;;;;;;;5059036;28;20028;-74
2023/01/02 06:18:14;;;;;;;13.98;3.88;;;;;;;;;;5059669;28;20021;-74
2023/01/02 06:20:40;;;;;;;13.70;3.70;;;;;;;;;;5057547;28;20016;-74
2023/01/02 06:23:06;;;;;;;11.63;3.80;;;;;;;;;;5060834;28;20036;-74
2023/01/02 06:25:33;;;;;;;14.75;4.18;;;;;;;;;;5059787;28;20121;-74
2023/01/02 06:27:59;;;;;;;8.70;3.70;;;;;;;;;;5053710;28;20024;-74
2023/01/02 06:30:25;;;;;;;12.27;3.17;;;;;;;;;;5055151;28;20846;-73
2023/01/02 06:32:51;;;;;;;13.73;3.50;;;;;;;;;;5054259;28;20029;-74
2023/01/02 06:35:17;;;;;;;14.90;3.72;;;;;;;;;;5058817;28;20187;-74
2023/01/02 06:37:43;;;;;;;9.07;3.38;;;;;;;;;;5060456;28;20019;-74
2023/01/02 06:40:09;;;;;;;11.63;3.60;;;;;;;;;;5061152;28;20408;-74
2023/01/02 06:42:35;;;;;;;17.33;4.07;;;;;;;;;;5060309;28;20029;-74
2023/01/02 06:45:01;;;;;;;12.52;4.18;;;;;;;;;;5063235;28;20028;-74
2023/01/02 06:47:27;;;;;;;11.95;4.20;;;;;;;;;;5061211;28;20639;-74
2023/01/02 06:49:53;;;;;;;13.45;3.53;;;;;;;;;;5066543;28;20040;-75
2023/01/02 06:52:19;;;;;;;11.35;3.10;;;;;;;;;;5061859;28;20040;-74
2023/01/02 06:54:45;;;;;;;9.73;3.55;;;;;;;;;;5060490;28;20016;-75
2023/01/02 06:57:11;;;;;;;16.55;3.80;;;;;;;;;;5060229;28;20513;-74
2023/01/02 06:59:37;;;;;;;11.57;4.22;;;;;;;;;;5058350;28;20013;-74
2023/01/02 07:02:03;;;;;;;17.35;4.35;;;;;;;;;;5056939;28;20025;-74
2023/01/02 07:04:29;;;;;;;13.40;4.07;;;;;;;;;;5060488;28;20033;-74
2023/01/02 07:06:55;;;;;;;12.60;3.95;;;;;;;;;;5055532;28;20602;-74
2023/01/02 07:09:21;;;;;;;13.50;4.40;;;;;;;;;;5059152;28;20075;-74
2023/01/02 07:11:47;;;;;;;22.48;5.47;;;;;;;;;;5063433;28;20025;-74
2023/01/02 07:14:13;;;;;;;18.95;4.70;;;;;;;;;;5062188;28;20021;-74
2023/01/02 07:16:39;;;;;;;14.40;4.43;;;;;;;;;;5059535;28;20025;-74
2023/01/02 07:19:05;;;;;;;13.25;5.60;;;;;;;;;;5060528;28;20035;-75
2023/01/02 07:21:31;;;;;;;14.85;4.63;;;;;;;;;;5055240;28;20028;-74
2023/01/02 07:23:57;;;;;;;16.83;4.63;;;;;;;;;;5059812;28;20585;-74
2023/01/02 07:26:23;;;;;;;9.80;4.25;;;;;;;;;;5071203;28;20032;-74
2023/01/02 07:28:49;;;;;;;13.15;3.70;;;;;;;;;;5060034;28;20028;-74
2023/01/02 07:31:16;;;;;;;14.15;4.53;;;;;;;;;;5061316;28;20029;-74
2023/01/02 07:33:42;;;;;;;16.05;3.85;;;;;;;;;;5062038;28;20063;-73
2023/01/02 07:36:10;;;;;;;11.85;3.80;;;;;;;;;;5056862;28;20618;-74
2023/01/02 07:38:38;;;;;;;13.05;4.00;;;;;;;;;;5060029;28;20444;-74
2023/01/02 07:41:04;;;;;;;13.55;4.00;;;;;;;;;;5062499;28;20032;-74
2023/01/02 07:43:30;;;;;;;14.27;3.80;;;;;;;;;;5058180;28;20040;-74
2023/01/02 07:46:02;;;;;;;10.80;3.83;;;;;;;;;;5058155;28;20046;-74
2023/01/02 07:48:28;;;;;;;17.17;4.40;;;;;;;;;;5063048;28;20056;-74
2023/01/02 07:50:58;;;;;;;15.45;3.88;;;;;;;;;;5067391;28;20029;-74
2023/01/02 07:53:24;;;;;;;14.80;3.13;;;;;;;;;;5067084;28;20554;-74
2023/01/02 07:55:54;;;;;;;15.98;4.07;;;;;;;;;;5064195;28;20025;-74
2023/01/02 07:58:20;;;;;;;15.25;3.40;;;;;;;;;;5060160;28;20012;-74
2023/01/02 08:00:46;;;;;;;16.95;3.88;;;;;;;;;;5068988;28;20387;-74
2023/01/02 08:03:12;;;;;;;12.13;3.70;;;;;;;;;;5065809;28;20081;-74
2023/01/02 08:05:38;;;;;;;15.27;3.53;;;;;;;;;;5062604;28;20035;-74
2023/01/02 08:08:04;;;;;;;15.35;3.65;;;;;;;;;;5061552;28;20531;-74
2023/01/02 08:10:30;;;;;;;14.15;3.75;;;;;;;;;;5062712;28;20383;-74
2023/01/02 08:12:59;;;;;;;12.52;3.20;;;;;;;;;;5065839;28;20085;-74
2023/01/02 08:15:25;;;;;;;15.10;3.45;;;;;;;;;;5066738;28;20021;-74
2023/01/02 08:17:51;;;;;;;12.02;3.63;;;;;;;;;;5058930;28;20025;-74
2023/01/02 08:20:17;;;;;;;12.07;3.28;;;;;;;;;;5065755;28;20005;-74
2023/01/02 08:22:43;;;;;;;17.52;3.83;;;;;;;;;;5071863;28;20480;-74
2023/01/02 08:25:11;;;;;;;13.70;3.22;;;;;;;;;;5064960;28;20033;-74
2023/01/02 08:27:37;;;;;;;15.05;4.25;;;;;;;;;;5060566;28;20650;-74
2023/01/02 08:30:03;;;;;;;13.50;3.65;;;;;;;;;;5055375;28;20032;-74
2023/01/02 08:32:29;;;;;;;10.98;3.40;;;;;;;;;;5063060;28;20028;-75
2023/01/02 08:34:55;;;;;;;11.30;3.38;;;;;;;;;;5059512;28;20070;-74
2023/01/02 08:37:21;;;;;;;17.50;4.07;;;;;;;;;;5063024;28;20024;-74
2023/01/02 08:39:47;;;;;;;18.05;3.58;;;;;;;;;;5063088;28;20697;-74
2023/01/02 08:42:13;;;;;;;12.32;4.63;;;;;;;;;;5056376;28;20041;-74
2023/01/02 08:44:39;;;;;;;20.13;5.28;;;;;;;;;;5062605;28;20021;-74
2023/01/02 08:47:05;;;;;;;15.48;3.50;;;;;;;;;;5048333;28;20037;-73
2023/01/02 08:49:31;;;;;;;14.65;2.97;;;;;;;;;;5057225;28;20037;-74
2023/01/02 08:51:57;;;;;;;13.73;4.20;;;;;;;;;;5060383;28;20626;-74
2023/01/02 08:54:23;;;;;;;16.50;4.05;;;;;;;;;;5058942;28;20031;-74
2023/01/02 08:56:49;;;;;;;15.88;3.47;;;;;;;;;;5057710;28;20115;-74
2023/01/02 08:59:15;;;;;;;15.13;3.70;;;;;;;;;;5049946;28;20024;-74
2023/01/02 09:01:41;;;;;;;9.55;3.38;;;;;;;;;;5075889;28;20434;-74
2023/01/02 09:04:08;;;;;;;13.70;3.45;;;;;;;;;;5068499;28;20627;-74
2023/01/02 09:06:35;;;;;;;11.20;3.38;;;;;;;;;;5064016;28;20020;-74
2023/01/02 09:09:01;;;;;;;13.18;3.80;;;;;;;;;;5069386;28;20041;-74
2023/01/02 09:11:29;;;;;;;11.93;3.80;;;;;;;;;;5064731;28;20023;-74
2023/01/02 09:13:56;;;;;;;16.52;3.22;;;;;;;;;;5071656;28;20039;-74
2023/01/02 09:16:22;;;;;;;12.40;3.50;;;;;;;;;;5065960;28;20120;-74
2023/01/02 09:18:48;;;;;;;13.73;3.53;;;;;;;;;;5067627;28;20036;-74
2023/01/02 09:21:14;;;;;;;18.75;3.63;;;;;;;;;;5062940;28;20028;-73
2023/01/02 09:23:40;;;;;;;11.45;3.55;;;;;;;;;;5057708;28;20028;-74
2023/01/02 09:26:06;;;;;;;14.60;3.53;;;;;;;;;;5043729;28;20056;-74
2023/01/02 09:28:33;;;;;;;13.95;3.30;;;;;;;;;;5051589;28;20091;-74
2023/01/02 09:31:00;;;;;;;16.52;3.15;;;;;;;;;;5060687;28;20032;-74
2023/01/02 09:33:25;;;;;;;14.45;3.75;;;;;;;;;;5055245;28;20036;-74
2023/01/02 09:35:52;;;;;;;11.60;3.50;;;;;;;;;;5055087;28;20035;-74
2023/01/02 09:38:18;;;;;;;13.48;3.55;;;;;;;;;;5067735;28;20028;-74
2023/01/02 09:40:53;;;;;;;17.02;3.30;;;;;;;;;;5065759;28;20020;-74
2023/01/02 09:43:39;;;;;;;12.32;3.90;;;;;;;;;;5057076;28;20071;-74
2023/01/02 09:46:07;;;;;;;10.13;3.38;;;;;;;;;;5059018;28;20028;-73
2023/01/02 09:48:35;;;;;;;15.00;3.13;;;;;;;;;;5063951;28;20028;-74
2023/01/02 09:51:01;;;;;;;17.17;3.53;;;;;;;;;;5064231;28;20028;-74
2023/01/02 09:53:29;;;;;;;20.08;3.30;;;;;;;;;;5061705;28;20073;-74
2023/01/02 09:55:57;;;;;;;13.35;3.47;;;;;;;;;;5055849;28;20020;-74
2023/01/02 09:58:26;;;;;;;14.60;3.10;;;;;;;;;;5053659;28;20012;-73
2023/01/02 10:00:52;;;;;;;9.43;3.10;;;;;;;;;;5058298;28;20033;-73
2023/01/02 10:03:31;;;;;;;12.85;3.60;;;;;;;;;;5075700;28;21105;-73
2023/01/02 10:06:03;;;;;;;12.48;3.42;;;;;;;;;;5061573;28;21042;-73
2023/01/02 10:08:43;;;;;;;18.42;3.72;;;;;;;;;;5054017;28;20032;-73
2023/01/02 10:11:09;;;;;;;16.15;3.72;;;;;;;;;;5063206;28;20035;-73
2023/01/02 10:13:40;;;;;;;15.60;4.18;;;;;;;;;;5058410;28;20024;-73
2023/01/02 10:16:07;;;;;;;14.10;3.10;;;;;;;;;;5066441;28;20035;-73
2023/01/02 10:18:39;;;;;;;15.38;3.28;;;;;;;;;;5061947;28;20029;-73
2023/01/02 10:21:12;;;;;;;11.15;3.00;;;;;;;;;;5064583;28;20472;-73
2023/01/02 10:23:40;;;;;;;12.48;3.75;;;;;;;;;;5061276;28;20120;-73
2023/01/02 10:26:10;;;;;;;11.90;3.33;;;;;;;;;;5058868;28;20033;-73
2023/01/02 10:28:45;;;;;;;11.02;3.10;;;;;;;;;;5066329;28;20020;-74
2023/01/02 10:31:20;;;;;;;16.27;2.92;;;;;;;;;;5064181;28;20029;-74
2023/01/02 10:33:46;;;;;;;17.42;2.97;;;;;;;;;;5061685;28;20029;-73
2023/01/02 10:36:25;;;;;;;14.45;3.47;;;;;;;;;;5070713;28;20441;-74
2023/01/02 10:38:52;;;;;;;17.55;3.53;;;;;;;;;;5059740;28;20028;-73
2023/01/02 10:41:18;;;;;;;19.98;3.38;;;;;;;;;;5061028;28;20650;-74
2023/01/02 10:43:46;;;;;;;19.95;3.58;;;;;;;;;;5062329;28;22927;-74
2023/01/02 10:46:12;;;;;;;12.88;3.10;;;;;;;;;;5055622;28;20031;-74
2023/01/02 10:48:38;;;;;;;13.93;3.50;;;;;;;;;;5057714;28;20032;-74
2023/01/02 10:51:06;;;;;;;18.58;3.33;;;;;;;;;;5071188;28;20034;-74
2023/01/02 10:53:35;;;;;;;11.95;3.42;;;;;;;;;;5074572;28;20119;-74
2023/01/02 10:56:06;;;;;;;17.10;3.40;;;;;;;;;;5069768;28;20784;-73
2023/01/02 10:58:33;;;;;;;15.63;3.30;;;;;;;;;;5063424;28;20043;-74
2023/01/02 11:01:06;;;;;;;20.42;3.40;;;;;;;;;;5068449;28;20047;-74
2023/01/02 11:03:33;;;;;;;13.57;3.10;;;;;;;;;;5050846;28;20106;-74
2023/01/02 11:05:59;;;;;;;17.30;3.60;;;;;;;;;;5048433;28;20021;-74
2023/01/02 11:08:39;;;;;;;12.85;3.33;;;;;;;;;;5048873;28;20056;-74
2023/01/02 11:11:15;;;;;;;18.08;3.45;;;;;;;;;;5066049;28;20029;-73
2023/01/02 11:13:45;;;;;;;19.92;4.15;;;;;;;;;;5065439;28;20024;-71
2023/01/02 11:16:45;;;;;;;11.43;3.00;;;;;;;;;;5059306;28;20081;-78
2023/01/02 11:19:18;;;;;;;13.75;4.07;;;;;;;;;;5055628;28;20020;-77
2023/01/02 11:21:45;;;;;;;18.35;3.47;;;;;;;;;;5064213;28;20499;-77
2023/01/02 11:24:15;;;;;;;13.15;3.35;;;;;;;;;;5064884;28;20063;-78
2023/01/02 11:26:42;;;;;;;19.55;3.08;;;;;;;;;;5058460;28;20043;-77
2023/01/02 11:29:16;;;;;;;16.77;3.80;;;;;;;;;;5062959;28;20031;-77
2023/01/02 11:31:47;;;;;;;9.43;3.03;;;;;;;;;;5062942;28;20033;-77
2023/01/02 11:34:24;;;;;;;9.95;2.53;;;;;;;;;;5058122;28;20048;-77
2023/01/02 11:37:14;;;;;;;15.23;3.25;;;;;;;;;;5062258;28;20025;-77
2023/01/02 11:39:40;;;;;;;16.65;3.47;;;;;;;;;;5064960;28;20370;-77
2023/01/02 11:44:56;;;;;;;19.52;3.55;;;;;;;;;;5060757;28;21015;-77
2023/01/02 11:47:29;;;;;;;19.50;3.97;;;;;;;;;;5058956;28;20044;-77
2023/01/02 11:49:55;;;;;;;18.08;3.38;;;;;;;;;;5058556;28;20042;-77
2023/01/02 11:52:25;;;;;;;16.92;3.50;;;;;;;;;;5057068;28;20237;-76
2023/01/02 11:55:07;;;;;;;19.92;4.15;;;;;;;;;;5061597;28;20032;-79
2023/01/02 11:57:47;;;;;;;21.60;3.50;;;;;;;;;;5058478;28;20136;-77
2023/01/02 12:00:14;;;;;;;14.00;3.75;;;;;;;;;;5062826;28;20021;-80
2023/01/02 12:02:41;;;;;;;17.50;4.10;;;;;;;;;;5058175;28;20025;-78
2023/01/02 12:05:23;;;;;;;13.52;3.00;;;;;;;;;;5065073;28;20205;-80
2023/01/02 12:07:54;;;;;;;18.85;3.47;;;;;;;;;;5080415;28;20024;-78
2023/01/02 12:10:20;;;;;;;14.35;3.25;;;;;;;;;;5049782;28;20043;-78
2023/01/02 12:13:13;;;;;;;14.20;3.95;;;;;;;;;;5066040;28;20028;-79
2023/01/02 12:15:42;;;;;;;14.93;4.07;;;;;;;;;;5052528;28;20360;-77
2023/01/02 12:18:18;;;;;;;16.85;3.75;;;;;;;;;;5052163;28;20028;-78
2023/01/02 12:20:44;;;;;;;13.50;3.40;;;;;;;;;;5058751;28;20434;-77
2023/01/02 12:23:19;;;;;;;15.05;2.92;;;;;;;;;;5061519;28;20100;-79
2023/01/02 12:25:52;;;;;;;13.77;3.53;;;;;;;;;;5063864;28;20485;-78
2023/01/02 12:28:30;;;;;;;12.60;3.60;;;;;;;;;;5080007;28;20028;-78
2023/01/02 12:31:15;;;;;;;21.27;4.00;;;;;;;;;;5052021;28;20110;-78
2023/01/02 12:33:44;;;;;;;17.80;3.83;;;;;;;;;;5050205;28;20397;-79
2023/01/02 12:36:10;;;;;;;15.98;3.92;;;;;;;;;;5065746;28;20048;-76
2023/01/02 12:38:45;;;;;;;19.15;4.05;;;;;;;;;;5064020;28;20071;-77
2023/01/02 12:41:23;;;;;;;21.75;4.03;;;;;;;;;;5053236;28;20021;-78
2023/01/02 12:44:12;;;;;;;16.45;3.78;;;;;;;;;;5057601;28;20029;-76
2023/01/02 12:46:38;;;;;;;13.30;3.92;;;;;;;;;;5068867;28;20040;-76
2023/01/02 12:49:16;;;;;;;15.48;3.53;;;;;;;;;;5066951;28;20396;-75
2023/01/02 12:51:51;;;;;;;19.77;4.15;;;;;;;;;;5064283;28;20025;-75
2023/01/02 12:54:35;;;;;;;12.57;3.55;;;;;;;;;;5063639;28;20028;-76
2023/01/02 12:57:10;;;;;;;16.77;4.43;;;;;;;;;;5052376;28;20013;-76
2023/01/02 12:59:42;;;;;;;14.10;4.15;;;;;;;;;;5050404;28;21912;-77
2023/01/02 13:02:11;;;;;;;19.58;4.85;;;;;;;;;;5049541;28;20378;-80
2023/01/02 13:04:39;;;;;;;14.73;4.93;;;;;;;;;;5060932;28;20060;-80
2023/01/02 13:07:13;;;;;;;11.32;4.68;;;;;;;;;;5078625;28;20036;-80
2023/01/02 13:09:40;;;;;;;15.75;5.53;;;;;;;;;;5068471;28;20013;-80
2023/01/02 13:12:08;;;;;;;16.85;5.72;;;;;;;;;;5071977;28;20039;-79
2023/01/02 13:14:37;;;;;;;19.50;5.97;;;;;;;;;;5060301;28;20502;-77
2023/01/02 13:17:22;;;;;;;17.35;5.32;;;;;;;;;;5063830;28;20458;-77
2023/01/02 13:19:51;;;;;;;8.77;4.18;;;;;;;;;;5068497;28;20489;-79
2023/01/02 13:22:26;;;;;;;17.60;4.50;;;;;;;;;;5055644;28;20029;-76
2023/01/02 13:24:52;;;;;;;13.13;4.00;;;;;;;;;;5063597;28;20629;-77
2023/01/02 13:27:18;;;;;;;18.00;4.72;;;;;;;;;;5082448;28;20374;-77
2023/01/02 13:29:45;;;;;;;15.98;4.80;;;;;;;;;;5075822;28;20024;-77
2023/01/02 13:32:12;;;;;;;15.95;4.63;;;;;;;;;;5057842;28;20032;-79
2023/01/02 13:34:46;;;;;;;13.23;4.38;;;;;;;;;;5068804;28;20033;-77
2023/01/02 13:37:15;;;;;;;12.77;4.35;;;;;;;;;;5076229;28;20020;-79
2023/01/02 13:39:41;;;;;;;12.93;3.80;;;;;;;;;;5069247;28;20020;-79
2023/01/02 13:44:54;;;;;;;12.43;4.20;;;;;;;;;;5064656;28;20040;-82
2023/01/02 13:47:43;;;;;;;11.45;4.18;;;;;;;;;;5075948;28;20226;-79
2023/01/02 13:50:17;;;;;;;8.75;3.20;;;;;;;;;;5065387;28;20037;-78
2023/01/02 13:52:56;;;;;;;8.98;3.30;;;;;;;;;;5057637;28;20315;-77
2023/01/02 13:55:24;;;;;;;5.45;1.40;;;;;;;;;;5058893;28;20016;-77
2023/01/02 13:58:08;;;;;;;7.18;2.88;;;;;;;;;;5063708;28;20020;-78
2023/01/02 14:00:36;;;;;;;2.33;1.17;;;;;;;;;;5070104;28;20032;-78
2023/01/02 14:03:17;;;;;;;2.00;1.33;;;;;;;;;;5073438;28;20066;-78
2023/01/02 14:05:58;;;;;;;3.15;1.10;;;;;;;;;;5053975;28;20074;-78
2023/01/02 14:08:33;;;;;;;1.70;1.00;;;;;;;;;;5063629;28;20046;-77
2023/01/02 14:11:08;;;;;;;4.57;1.80;;;;;;;;;;5068403;28;20032;-77
2023/01/02 14:13:43;;;;;;;3.95;2.60;;;;;;;;;;5072064;28;20032;-77
2023/01/02 14:16:15;;;;;;;3.50;2.05;;;;;;;;;;5052144;28;20033;-77
2023/01/02 14:18:41;;;;;;;3.28;1.83;;;;;;;;;;5073418;28;20562;-76
2023/01/02 14:21:07;;;;;;;10.77;7.22;;;;;;;;;;5061495;28;20029;-76
2023/01/02 14:23:38;;;;;;;10.02;6.03;;;;;;;;;;5060144;28;20021;-76
2023/01/02 14:26:05;;;;;;;30.33;19.48;;;;;;;;;;5058879;28;20494;-76
2023/01/02 14:28:34;;;;;;;6.82;3.97;;;;;;;;;;5064762;28;20123;-76
2023/01/02 14:31:02;;;;;;;6.20;3.22;;;;;;;;;;5060404;28;20028;-76
2023/01/02 14:33:32;;;;;;;8.43;5.50;;;;;;;;;;5055580;28;20159;-76
2023/01/02 14:36:02;;;;;;;8.82;4.60;;;;;;;;;;5062051;28;20029;-76
2023/01/02 14:38:30;;;;;;;4.60;3.10;;;;;;;;;;5065468;28;20032;-77
2023/01/02 14:43:41;;;;;;;3.20;2.05;;;;;;;;;;5057835;28;20083;-77
2023/01/02 14:46:07;;;;;;;4.05;2.00;;;;;;;;;;5065410;28;20148;-77
2023/01/02 14:48:40;;;;;;;5.13;2.70;;;;;;;;;;5064801;28;20033;-77
2023/01/02 14:51:08;;;;;;;5.28;3.67;;;;;;;;;;5064678;28;20028;-77
2023/01/02 14:53:57;;;;;;;4.10;2.75;;;;;;;;;;5070056;28;20460;-78